Time;durP1;ratioP1;P1;durP2;ratioP2;P2;SDS_P1;SDS_P2;PMS_P1;PMS_P2;Temp;Humidity;BMP_temperature;BMP_pressure;BME280_temperature;BME280_humidity;BME280_pressure;Samples;Min_cycle;Max_cycle;Signal;HPM_P1;HPM_P2
2023/07/27 00:02:04;;;;;;;0.40;0.40;;;23.30;60.70;;;23.57;45.05;94826.88;5077409;28;20200;-38
2023/07/27 00:04:31;;;;;;;0.30;0.30;;;23.30;60.70;;;23.56;45.00;94831.44;5077083;28;20208;-37
2023/07/27 00:06:58;;;;;;;0.32;0.32;;;23.30;60.70;;;23.55;44.91;94823.72;5075883;28;20248;-38
2023/07/27 00:09:26;;;;;;;0.38;0.38;;;23.30;60.50;;;23.55;45.17;94829.06;5076289;28;20285;-39
2023/07/27 00:11:55;;;;;;;0.40;0.40;;;23.30;60.70;;;23.53;45.04;94823.97;5076787;28;20206;-38
2023/07/27 00:14:22;;;;;;;0.30;0.30;;;23.30;60.90;;;23.52;45.16;94824.25;5076696;28;20644;-37
2023/07/27 00:16:49;;;;;;;0.40;0.40;;;23.30;60.80;;;23.50;45.15;94824.53;5076685;28;20224;-37
2023/07/27 00:19:17;;;;;;;0.30;0.30;;;23.30;60.60;;;23.48;45.14;94819.44;5076935;28;20215;-37
2023/07/27 00:21:44;;;;;;;0.38;0.38;;;23.30;60.60;;;23.46;44.84;94828.81;5076645;28;20617;-37
2023/07/27 00:24:11;;;;;;;0.40;0.40;;;23.20;60.30;;;23.44;45.01;94820.28;5077224;28;20191;-37
2023/07/27 00:26:38;;;;;;;0.40;0.40;;;23.20;60.50;;;23.40;45.23;94814.69;5077005;28;20183;-38
2023/07/27 00:29:05;;;;;;;0.40;0.40;;;23.20;60.60;;;23.40;45.12;94820.03;5076264;28;20205;-37
2023/07/27 00:31:32;;;;;;;0.40;0.40;;;23.20;60.70;;;23.41;45.47;94828.84;5076703;28;20202;-38
2023/07/27 00:33:59;;;;;;;0.40;0.40;;;23.20;60.90;;;23.42;45.40;94819.75;5075774;28;20259;-37
2023/07/27 00:36:27;;;;;;;0.40;0.40;;;23.20;60.90;;;23.41;45.41;94821.63;5076273;28;20283;-38
2023/07/27 00:38:54;;;;;;;0.40;0.40;;;23.20;61.00;;;23.41;45.81;94826.97;5076159;28;20291;-38
2023/07/27 00:41:21;;;;;;;0.30;0.30;;;23.20;61.10;;;23.42;45.54;94823.22;5076795;28;20534;-39
2023/07/27 00:43:49;;;;;;;0.30;0.30;;;23.20;61.00;;;23.43;45.66;94827.50;5074827;28;20199;-38
2023/07/27 00:46:16;;;;;;;0.40;0.40;;;23.20;61.10;;;23.43;45.52;94824.03;5075466;28;20195;-38
2023/07/27 00:48:43;;;;;;;0.40;0.40;;;23.20;61.10;;;23.40;45.79;94819.22;5076014;28;20198;-38
2023/07/27 00:51:11;;;;;;;0.30;0.30;;;23.20;61.10;;;23.41;46.04;94815.47;5075143;28;20710;-38
2023/07/27 00:53:39;;;;;;;0.30;0.30;;;23.20;61.20;;;23.43;45.99;94819.47;5075475;28;20193;-38
2023/07/27 00:56:08;;;;;;;0.40;0.40;;;23.20;61.40;;;23.42;45.71;94809.81;5075240;28;20211;-38
2023/07/27 00:58:39;;;;;;;0.40;0.40;;;23.20;61.30;;;23.43;45.82;94811.44;5074751;28;20253;-37
2023/07/27 01:01:07;;;;;;;0.30;0.30;;;23.20;61.30;;;23.43;45.82;94807.97;5074725;28;20274;-39
2023/07/27 01:03:36;;;;;;;0.32;0.32;;;23.20;61.10;;;23.43;45.69;94813.31;5075415;28;20525;-38
2023/07/27 01:06:03;;;;;;;0.40;0.40;;;23.20;61.00;;;23.41;45.89;94805.56;5075555;28;20650;-38
2023/07/27 01:08:32;;;;;;;0.40;0.40;;;23.20;61.20;;;23.40;45.85;94805.81;5075556;28;20213;-38
2023/07/27 01:11:07;;;;;;;0.30;0.30;;;23.20;61.10;;;23.39;45.91;94806.91;5076152;28;20191;-38
2023/07/27 01:13:57;;;;;;;0.30;0.30;;;23.20;60.90;;;23.33;45.89;94806.94;5074530;28;20281;-39
2023/07/27 01:16:57;;;;;;;0.50;0.50;;;23.20;61.30;;;23.30;45.93;94799.47;5075481;28;20178;-38
2023/07/27 01:20:12;;;;;;;0.40;0.40;;;23.20;61.10;;;23.26;46.15;94808.31;5074644;28;20207;-38
2023/07/27 01:22:48;;;;;;;0.35;0.35;;;23.20;61.00;;;23.23;45.66;94807.00;5074287;28;20579;-40
2023/07/27 01:25:48;;;;;;;0.50;0.50;;;23.10;60.70;;;23.21;45.81;94805.66;5075634;28;20188;-37
2023/07/27 01:28:48;;;;;;;0.47;0.47;;;23.10;61.00;;;23.14;45.94;94806.72;5075753;28;20240;-38
2023/07/27 01:31:31;;;;;;;0.30;0.30;;;23.10;60.90;;;23.13;45.83;94802.44;5074432;28;20222;-38
2023/07/27 01:34:03;;;;;;;0.30;0.30;;;23.00;61.10;;;23.12;45.74;94808.88;5075352;28;20175;-37
2023/07/27 01:36:37;;;;;;;0.30;0.30;;;23.00;60.80;;;23.08;45.50;94804.34;5057573;28;20225;-38
2023/07/27 01:39:08;;;;;;;0.45;0.45;;;23.00;60.80;;;23.03;45.57;94803.28;5075638;28;20242;-38
2023/07/27 01:41:41;;;;;;;0.40;0.40;;;23.00;60.60;;;23.00;45.67;94803.03;5075384;28;20559;-37
2023/07/27 01:44:10;;;;;;;0.30;0.30;;;22.90;60.90;;;22.96;45.50;94792.09;5074914;28;20724;-38
2023/07/27 01:46:39;;;;;;;0.40;0.40;;;22.90;61.00;;;22.94;45.99;94793.44;5074502;28;20183;-38
2023/07/27 01:49:07;;;;;;;0.30;0.30;;;22.80;61.00;;;22.92;46.02;94796.34;5075176;28;20230;-38
2023/07/27 01:51:38;;;;;;;0.40;0.40;;;22.80;61.00;;;22.90;45.94;94803.06;5057801;28;20221;-38
2023/07/27 01:54:07;;;;;;;0.40;0.40;;;22.80;61.10;;;22.90;46.19;94795.84;5075206;28;20261;-38
2023/07/27 01:56:36;;;;;;;0.40;0.40;;;22.80;61.30;;;22.89;46.24;94794.25;5074480;28;20634;-38
2023/07/27 01:59:06;;;;;;;0.40;0.40;;;22.80;61.20;;;22.90;46.17;94785.16;5073981;28;20240;-38
2023/07/27 02:01:36;;;;;;;0.43;0.43;;;22.70;61.30;;;22.91;46.37;94786.75;5073870;28;20218;-38
2023/07/27 02:04:05;;;;;;;0.40;0.40;;;22.80;61.40;;;22.91;46.42;94792.09;5057507;28;20197;-37
2023/07/27 02:06:32;;;;;;;0.30;0.30;;;22.70;61.20;;;22.92;46.30;94787.56;5092372;28;20197;-38
2023/07/27 02:08:59;;;;;;;0.40;0.40;;;22.70;61.30;;;22.90;46.18;94787.81;5078211;28;20187;-38
2023/07/27 02:11:27;;;;;;;0.40;0.40;;;22.70;61.30;;;22.89;45.95;94780.88;5078112;28;20202;-38
2023/07/27 02:14:01;;;;;;;0.45;0.45;;;22.70;61.10;;;22.87;46.09;94780.34;5077659;28;20214;-38
2023/07/27 02:16:53;;;;;;;0.40;0.40;;;22.70;61.00;;;22.83;45.79;94790.00;5078061;28;20205;-37
2023/07/27 02:19:31;;;;;;;0.40;0.40;;;22.70;61.30;;;22.82;45.96;94796.41;5078167;28;20219;-38
2023/07/27 02:22:02;;;;;;;0.30;0.30;;;22.70;61.00;;;22.80;46.17;94793.19;5078806;28;20207;-37
2023/07/27 02:24:32;;;;;;;0.40;0.40;;;22.70;61.30;;;22.81;46.25;94792.13;5077259;28;20183;-38
2023/07/27 02:27:00;;;;;;;0.40;0.40;;;22.70;61.20;;;22.80;46.35;94794.00;5044392;28;20200;-38
2023/07/27 02:29:27;;;;;;;0.30;0.30;;;22.70;61.20;;;22.81;46.25;94792.94;5077211;28;20271;-37
2023/07/27 02:31:54;;;;;;;0.40;0.40;;;22.60;61.20;;;22.82;46.20;94801.75;5077222;28;20247;-37
2023/07/27 02:34:22;;;;;;;0.40;0.40;;;22.60;61.20;;;22.83;46.41;94800.69;5077969;28;20226;-37
2023/07/27 02:36:50;;;;;;;0.40;0.40;;;22.60;61.40;;;22.85;46.27;94802.00;5077898;28;20230;-38
2023/07/27 02:39:17;;;;;;;0.40;0.40;;;22.70;61.50;;;22.85;46.30;94806.53;5078246;28;20203;-37
2023/07/27 02:41:44;;;;;;;0.45;0.45;;;22.70;61.50;;;22.86;46.55;94800.94;5077930;28;20229;-38
2023/07/27 02:44:17;;;;;;;0.40;0.40;;;22.70;61.50;;;22.86;46.66;94806.28;5076988;28;20308;-37
2023/07/27 02:46:44;;;;;;;0.40;0.40;;;22.70;61.50;;;22.88;46.63;94807.91;5078406;28;20193;-37
2023/07/27 02:49:11;;;;;;;0.30;0.30;;;22.70;61.60;;;22.89;46.56;94812.16;5077072;28;20195;-38
2023/07/27 02:51:41;;;;;;;0.40;0.40;;;22.70;61.60;;;22.89;46.47;94810.28;5077059;28;20648;-38
2023/07/27 02:54:09;;;;;;;0.38;0.38;;;22.70;61.40;;;22.88;46.29;94807.91;5076592;28;20202;-39
2023/07/27 02:56:36;;;;;;;0.40;0.40;;;22.70;61.40;;;22.87;46.37;94815.09;5076786;28;20225;-38
2023/07/27 02:59:03;;;;;;;0.40;0.40;;;22.70;61.40;;;22.85;46.43;94814.56;5076765;28;20198;-38
2023/07/27 03:01:36;;;;;;;0.43;0.43;;;22.70;61.30;;;22.83;46.31;94819.41;5076960;28;20225;-40
2023/07/27 03:04:07;;;;;;;0.30;0.30;;;22.70;61.40;;;22.82;46.44;94820.47;5076821;28;20204;-39
2023/07/27 03:06:35;;;;;;;0.40;0.40;;;22.70;61.30;;;22.76;46.17;94808.19;5077843;28;20209;-41
2023/07/27 03:09:04;;;;;;;0.40;0.40;;;22.70;61.10;;;22.77;46.27;94818.59;5060811;28;20204;-42
2023/07/27 03:11:32;;;;;;;0.47;0.47;;;22.60;61.10;;;22.74;46.33;94818.34;5076686;28;20655;-37
2023/07/27 03:13:59;;;;;;;0.40;0.40;;;22.60;61.40;;;22.71;46.53;94817.81;5077288;28;20538;-41
2023/07/27 03:16:26;;;;;;;0.40;0.40;;;22.60;61.30;;;22.70;46.44;94824.25;5077762;28;20191;-41
2023/07/27 03:18:53;;;;;;;0.40;0.40;;;22.60;61.50;;;22.69;46.34;94816.47;5077912;28;20187;-37
2023/07/27 03:21:20;;;;;;;0.43;0.43;;;22.60;61.50;;;22.68;46.64;94817.56;5076500;28;20536;-38
2023/07/27 03:23:50;;;;;;;0.40;0.40;;;22.60;61.50;;;22.65;46.22;94815.44;5077824;28;20212;-39
2023/07/27 03:26:18;;;;;;;0.40;0.40;;;22.60;61.40;;;22.60;46.30;94818.91;5076678;28;20200;-38
2023/07/27 03:28:45;;;;;;;0.40;0.40;;;22.50;61.20;;;22.50;46.29;94806.38;5077454;28;20205;-37
2023/07/27 03:31:20;;;;;;;0.40;0.40;;;22.50;61.30;;;22.56;46.39;94815.19;5076541;28;20210;-37
2023/07/27 03:33:48;;;;;;;0.40;0.40;;;22.50;61.40;;;22.54;46.67;94818.13;5076292;28;20227;-37
2023/07/27 03:36:17;;;;;;;0.30;0.30;;;22.50;61.30;;;22.53;46.56;94824.53;5076567;28;20201;-38
2023/07/27 03:38:45;;;;;;;0.45;0.45;;;22.40;61.30;;;22.53;46.69;94818.38;5076712;28;20207;-37
2023/07/27 03:41:14;;;;;;;0.43;0.43;;;22.40;61.40;;;22.52;46.58;94830.13;5059657;28;20689;-38
2023/07/27 03:43:41;;;;;;;0.40;0.40;;;22.40;61.70;;;22.50;46.72;94829.63;5076028;28;20209;-41
2023/07/27 03:46:08;;;;;;;0.40;0.40;;;22.40;61.50;;;22.48;46.73;94827.19;5058833;28;20234;-42
2023/07/27 03:48:36;;;;;;;0.40;0.40;;;22.40;61.40;;;22.49;46.61;94828.81;5075430;28;20205;-40
2023/07/27 03:51:04;;;;;;;0.40;0.40;;;22.40;61.60;;;22.49;46.73;94820.00;5076346;28;20194;-43
2023/07/27 03:53:31;;;;;;;0.40;0.40;;;22.40;61.70;;;22.48;46.83;94813.06;5075204;28;20589;-40
2023/07/27 03:56:01;;;;;;;0.40;0.40;;;22.40;61.70;;;22.48;46.89;94805.03;5075694;28;20329;-40
2023/07/27 03:58:28;;;;;;;0.40;0.40;;;22.40;61.60;;;22.45;47.03;94803.69;5075290;28;20197;-40
2023/07/27 04:00:56;;;;;;;0.40;0.40;;;22.40;61.80;;;22.46;47.02;94812.50;5075064;28;20672;-40
2023/07/27 04:03:24;;;;;;;0.30;0.30;;;22.30;61.50;;;22.45;46.57;94805.56;5058541;28;20243;-41
2023/07/27 04:05:52;;;;;;;0.40;0.40;;;22.40;61.50;;;22.43;46.58;94818.41;5076074;28;20632;-43
2023/07/27 04:08:19;;;;;;;0.40;0.40;;;22.30;61.40;;;22.42;46.71;94814.13;5075139;28;20257;-41
2023/07/27 04:10:46;;;;;;;0.40;0.40;;;22.30;61.50;;;22.39;46.72;94812.78;5075006;28;20294;-41
2023/07/27 04:13:13;;;;;;;0.50;0.50;;;22.30;61.40;;;22.37;46.35;94798.88;5074799;28;20199;-43
2023/07/27 04:15:41;;;;;;;0.40;0.40;;;22.30;61.40;;;22.34;46.67;94808.22;5076164;28;20262;-41
2023/07/27 04:18:08;;;;;;;0.38;0.38;;;22.20;61.40;;;22.35;46.54;94803.66;5058759;28;20287;-41
2023/07/27 04:20:35;;;;;;;0.40;0.40;;;22.20;61.50;;;22.34;46.83;94808.22;5075705;28;20283;-40
2023/07/27 04:23:02;;;;;;;0.50;0.50;;;22.30;61.60;;;22.35;46.67;94809.84;5074819;28;20201;-41
2023/07/27 04:25:30;;;;;;;0.40;0.40;;;22.20;61.60;;;22.35;46.63;94809.00;5075548;28;20201;-41
2023/07/27 04:27:57;;;;;;;0.40;0.40;;;22.30;61.70;;;22.37;46.73;94814.91;5058167;28;20187;-40
2023/07/27 04:30:24;;;;;;;0.40;0.40;;;22.30;61.80;;;22.37;46.86;94823.72;5074186;28;20699;-43
2023/07/27 04:32:51;;;;;;;0.40;0.40;;;22.20;61.90;;;22.39;47.21;94824.28;5075557;28;20195;-45
2023/07/27 04:35:18;;;;;;;0.38;0.38;;;22.20;61.80;;;22.40;47.07;94817.06;5074431;28;20285;-40
2023/07/27 04:37:45;;;;;;;0.40;0.40;;;22.20;61.90;;;22.42;46.94;94819.47;5074596;28;20237;-42
2023/07/27 04:40:14;;;;;;;0.40;0.40;;;22.20;61.80;;;22.44;46.99;94822.69;5075685;28;20247;-41
2023/07/27 04:42:41;;;;;;;0.30;0.30;;;22.20;61.90;;;22.45;47.00;94821.59;5074366;28;20684;-43
2023/07/27 04:45:09;;;;;;;0.40;0.40;;;22.30;61.90;;;22.45;46.95;94818.91;5074313;28;20243;-42
2023/07/27 04:47:36;;;;;;;0.40;0.40;;;22.30;62.10;;;22.45;46.95;94821.59;5075781;28;20211;-45
2023/07/27 04:50:05;;;;;;;0.40;0.40;;;22.30;61.80;;;22.44;47.21;94820.00;5075559;28;20188;-41
2023/07/27 04:52:32;;;;;;;0.38;0.38;;;22.30;61.80;;;22.44;47.12;94825.34;5074331;28;20206;-42
2023/07/27 04:55:00;;;;;;;0.35;0.35;;;22.30;61.70;;;22.43;46.48;94826.44;5074237;28;20205;-42
2023/07/27 04:57:27;;;;;;;0.45;0.45;;;22.30;61.80;;;22.42;47.02;94825.59;5075287;28;20222;-41
2023/07/27 04:59:54;;;;;;;0.40;0.40;;;22.30;61.80;;;22.41;46.87;94833.91;5074493;28;20217;-44
2023/07/27 05:02:21;;;;;;;0.40;0.40;;;22.30;61.90;;;22.43;47.21;94837.13;5074138;28;20229;-45
2023/07/27 05:04:50;;;;;;;0.40;0.40;;;22.30;61.90;;;22.43;47.33;94832.56;5075035;28;20191;-41
2023/07/27 05:07:20;;;;;;;0.40;0.40;;;22.30;62.00;;;22.44;47.04;94833.38;5074588;28;20207;-43
2023/07/27 05:09:48;;;;;;;0.50;0.50;;;22.20;61.90;;;22.44;46.99;94828.03;5074494;28;20194;-39
2023/07/27 05:12:15;;;;;;;0.40;0.40;;;22.30;62.00;;;22.43;46.96;94827.22;5074979;28;20513;-40
2023/07/27 05:14:42;;;;;;;0.40;0.40;;;22.30;61.90;;;22.43;47.21;94835.22;5074862;28;20201;-40
2023/07/27 05:17:09;;;;;;;0.30;0.30;;;22.30;61.90;;;22.43;47.35;94831.78;5075536;28;20524;-40
2023/07/27 05:19:36;;;;;;;0.32;0.32;;;22.30;62.10;;;22.44;47.13;94836.06;5075180;28;20190;-40
2023/07/27 05:22:03;;;;;;;0.40;0.40;;;22.30;62.10;;;22.44;47.33;94828.81;5075128;28;20217;-40
2023/07/27 05:24:31;;;;;;;0.40;0.40;;;22.30;62.00;;;22.44;46.89;94836.84;5075376;28;20270;-40
2023/07/27 05:26:58;;;;;;;0.38;0.38;;;22.30;61.80;;;22.44;47.08;94839.50;5074010;28;20186;-40
2023/07/27 05:29:25;;;;;;;0.50;0.50;;;22.30;62.00;;;22.45;47.41;94829.59;5073853;28;20209;-39
2023/07/27 05:31:52;;;;;;;0.50;0.50;;;22.30;61.80;;;22.45;47.29;94840.31;5074853;28;20199;-40
2023/07/27 05:34:19;;;;;;;0.40;0.40;;;22.30;62.20;;;22.47;47.24;94841.66;5074681;28;20291;-40
2023/07/27 05:36:46;;;;;;;0.40;0.40;;;22.30;62.10;;;22.49;47.50;94841.38;5075557;28;20532;-39
2023/07/27 05:39:13;;;;;;;0.30;0.30;;;22.30;62.20;;;22.53;47.48;94837.91;5075032;28;20299;-40
2023/07/27 05:41:40;;;;;;;0.40;0.40;;;22.30;62.50;;;22.55;47.43;94838.41;5076419;28;20300;-40
2023/07/27 05:44:07;;;;;;;0.38;0.38;;;22.40;62.20;;;22.57;47.21;94845.38;5078714;28;20243;-40
2023/07/27 05:46:35;;;;;;;0.30;0.30;;;22.40;62.20;;;22.58;47.49;94839.75;5079034;28;20562;-37
2023/07/27 05:49:05;;;;;;;0.30;0.30;;;22.40;62.20;;;22.61;47.70;94846.47;5079555;28;20209;-37
2023/07/27 05:51:35;;;;;;;0.40;0.40;;;22.40;62.30;;;22.65;47.39;94844.84;5079245;28;20187;-38
2023/07/27 05:54:03;;;;;;;0.40;0.40;;;22.40;62.30;;;22.66;47.27;94854.47;5078726;28;20530;-37
2023/07/27 05:56:30;;;;;;;0.32;0.32;;;22.50;62.30;;;22.68;47.33;94857.69;5078358;28;20195;-39
2023/07/27 05:58:57;;;;;;;0.43;0.43;;;22.50;62.20;;;22.69;47.38;94844.03;5078801;28;20236;-37
2023/07/27 06:01:24;;;;;;;0.40;0.40;;;22.50;62.20;;;22.70;47.36;94842.97;5078142;28;20211;-37
2023/07/27 06:03:51;;;;;;;0.30;0.30;;;22.50;62.10;;;22.72;47.30;94842.69;5078904;28;20190;-38
2023/07/27 06:06:34;;;;;;;0.40;0.40;;;22.60;62.10;;;22.73;47.55;94844.28;5077801;28;20210;-38
2023/07/27 06:09:03;;;;;;;0.43;0.43;;;22.60;62.40;;;22.76;47.24;94845.63;5078857;28;20218;-38
2023/07/27 06:11:30;;;;;;;0.40;0.40;;;22.60;62.30;;;22.77;47.36;94840.00;5078823;28;20264;-38
2023/07/27 06:13:57;;;;;;;0.40;0.40;;;22.60;62.20;;;22.79;47.55;94850.41;5078498;28;20199;-38
2023/07/27 06:16:24;;;;;;;0.35;0.35;;;22.60;62.20;;;22.80;47.21;94850.16;5078585;28;20199;-37
2023/07/27 06:18:52;;;;;;;0.40;0.40;;;22.60;62.20;;;22.82;47.58;94845.31;5078635;28;20252;-37
2023/07/27 06:21:19;;;;;;;0.40;0.40;;;22.60;62.20;;;22.84;47.54;94839.72;5078558;28;20246;-38
2023/07/27 06:23:46;;;;;;;0.40;0.40;;;22.70;62.30;;;22.85;47.47;94841.31;5078215;28;20191;-37
2023/07/27 06:26:13;;;;;;;0.40;0.40;;;22.70;62.20;;;22.88;47.25;94842.66;5077480;28;20294;-37
2023/07/27 06:28:40;;;;;;;0.40;0.40;;;22.70;62.10;;;22.90;47.26;94838.66;5078453;28;20198;-37
2023/07/27 06:31:08;;;;;;;0.30;0.30;;;22.70;63.00;;;22.92;47.34;94849.06;5077978;28;20235;-38
2023/07/27 06:33:35;;;;;;;0.30;0.30;;;22.70;62.10;;;22.92;47.29;94844.50;5077471;28;20263;-38
2023/07/27 06:36:02;;;;;;;0.40;0.40;;;22.80;62.20;;;22.94;47.36;94847.72;5078010;28;20671;-37
2023/07/27 06:38:30;;;;;;;0.38;0.38;;;22.80;62.10;;;22.95;47.28;94843.16;5078080;28;20191;-37
2023/07/27 06:40:57;;;;;;;0.38;0.38;;;22.80;62.10;;;22.96;47.22;94840.22;5077811;28;20191;-38
2023/07/27 06:43:24;;;;;;;0.40;0.40;;;22.80;62.10;;;22.99;47.07;94846.91;5076770;28;20615;-40
2023/07/27 06:45:51;;;;;;;0.30;0.30;;;22.80;62.10;;;23.01;46.99;94844.75;5076511;28;20237;-39
2023/07/27 06:48:18;;;;;;;0.40;0.40;;;22.80;62.00;;;23.02;47.09;94839.13;5076762;28;20192;-38
2023/07/27 06:50:45;;;;;;;0.35;0.35;;;22.80;62.10;;;23.05;47.20;94845.03;5075782;28;20202;-39
2023/07/27 06:53:12;;;;;;;0.30;0.30;;;22.80;62.00;;;23.05;47.02;94837.00;5075868;28;20187;-38
2023/07/27 06:55:39;;;;;;;0.30;0.30;;;22.90;62.10;;;23.07;47.08;94849.03;5075516;28;20201;-39
2023/07/27 06:58:07;;;;;;;0.30;0.30;;;22.90;62.10;;;23.08;47.37;94834.56;5076332;28;20534;-38
2023/07/27 07:00:34;;;;;;;0.40;0.40;;;22.90;62.10;;;23.11;47.26;94843.94;5076140;28;20695;-39
2023/07/27 07:03:01;;;;;;;0.40;0.40;;;22.90;62.00;;;23.11;46.85;94844.72;5076152;28;20276;-39
2023/07/27 07:05:28;;;;;;;0.40;0.40;;;23.00;62.00;;;23.12;47.18;94835.63;5076167;28;20210;-39
2023/07/27 07:07:56;;;;;;;0.40;0.40;;;23.00;62.20;;;23.15;47.13;94831.59;5058983;28;20202;-38
2023/07/27 07:10:23;;;;;;;0.30;0.30;;;23.00;62.10;;;23.16;47.00;94827.84;5076437;28;20214;-38
2023/07/27 07:12:50;;;;;;;0.30;0.30;;;23.00;62.10;;;23.18;47.01;94839.91;5076367;28;20187;-39
2023/07/27 07:15:17;;;;;;;0.40;0.40;;;23.00;62.00;;;23.21;46.84;94838.56;5076278;28;20204;-39
2023/07/27 07:17:44;;;;;;;0.40;0.40;;;23.00;61.80;;;23.20;46.80;94836.97;5076008;28;20700;-39
2023/07/27 07:20:12;;;;;;;0.40;0.40;;;23.00;61.70;;;23.20;46.56;94836.97;5074942;28;20651;-38
2023/07/27 07:22:39;;;;;;;0.30;0.30;;;23.00;61.70;;;23.22;46.86;94850.06;5075043;28;20230;-36
2023/07/27 07:25:07;;;;;;;0.40;0.40;;;23.00;61.60;;;23.23;46.31;94852.47;5076230;28;20698;-37
2023/07/27 07:27:34;;;;;;;0.40;0.40;;;23.00;61.60;;;23.22;46.47;94839.34;5076404;28;20218;-36
2023/07/27 07:30:04;;;;;;;0.30;0.30;;;23.10;61.70;;;23.23;46.67;94844.44;5076574;28;20267;-36
2023/07/27 07:32:33;;;;;;;0.32;0.32;;;23.10;61.70;;;23.25;46.79;94841.50;5076088;28;20191;-36
2023/07/27 07:35:01;;;;;;;0.40;0.40;;;23.00;61.50;;;23.27;46.54;94842.03;5077004;28;20316;-37
2023/07/27 07:37:28;;;;;;;0.30;0.30;;;23.00;61.50;;;23.28;46.75;94835.59;5076507;28;20579;-37
2023/07/27 07:39:55;;;;;;;0.40;0.40;;;23.10;61.50;;;23.28;46.81;94836.41;5076863;28;20200;-36
2023/07/27 07:42:23;;;;;;;0.30;0.30;;;23.10;61.70;;;23.30;46.61;94828.91;5076834;28;20208;-37
2023/07/27 07:44:50;;;;;;;0.30;0.30;;;23.10;61.50;;;23.32;46.67;94831.28;5019822;28;1637085;-42
2023/07/27 07:47:17;;;;;;;0.40;0.40;;;23.10;61.50;;;23.33;46.45;94833.69;5076317;28;20624;-38
2023/07/27 07:49:45;;;;;;;0.40;0.40;;;23.20;61.50;;;23.35;46.50;94830.72;5077809;28;20573;-37
2023/07/27 07:52:13;;;;;;;0.50;0.50;;;23.20;61.50;;;23.36;46.43;94823.53;5076996;28;20613;-39
2023/07/27 07:54:40;;;;;;;0.50;0.50;;;23.10;61.60;;;23.37;46.49;94822.44;5076274;28;20245;-38
2023/07/27 07:57:07;;;;;;;0.40;0.40;;;23.20;61.50;;;23.41;46.45;94826.16;5076712;28;20210;-38
2023/07/27 07:59:35;;;;;;;0.40;0.40;;;23.20;61.50;;;23.41;46.59;94818.13;5076369;28;20206;-40
2023/07/27 08:02:02;;;;;;;0.30;0.30;;;23.20;61.60;;;23.42;46.50;94817.84;5075083;28;20292;-38
2023/07/27 08:04:30;;;;;;;0.30;0.30;;;23.20;61.60;;;23.45;46.34;94820.00;5075786;28;20198;-40
2023/07/27 08:06:58;;;;;;;0.30;0.30;;;23.20;61.50;;;23.47;46.13;94809.81;5075108;28;20215;-40
2023/07/27 08:09:26;;;;;;;0.40;0.40;;;23.20;61.50;;;23.47;46.17;94817.84;5077586;28;20266;-37
2023/07/27 08:11:54;;;;;;;0.43;0.43;;;23.30;61.40;;;23.49;46.17;94818.34;5076427;28;20290;-40
2023/07/27 08:14:24;;;;;;;0.30;0.30;;;23.30;61.30;;;23.50;45.98;94811.16;5076879;28;20268;-37
2023/07/27 08:16:51;;;;;;;0.30;0.30;;;23.30;61.10;;;23.50;45.88;94806.56;5075694;28;20207;-39
2023/07/27 08:19:18;;;;;;;0.40;0.40;;;23.30;61.00;;;23.50;45.53;94809.25;5075812;28;20196;-39
2023/07/27 08:21:45;;;;;;;0.50;0.50;;;23.30;60.90;;;23.52;45.55;94802.81;5075735;28;20215;-38
2023/07/27 08:24:12;;;;;;;0.40;0.40;;;23.30;60.80;;;23.54;45.32;94809.50;5074861;28;20283;-39
2023/07/27 08:26:39;;;;;;;0.30;0.30;;;23.30;60.80;;;23.56;45.59;94803.88;5058299;28;20636;-39
2023/07/27 08:29:06;;;;;;;0.30;0.30;;;23.30;60.90;;;23.58;45.69;94809.75;5075063;28;20204;-39
2023/07/27 08:31:33;;;;;;;0.38;0.38;;;23.30;60.90;;;23.59;45.58;94795.28;5075720;28;20588;-38
2023/07/27 08:34:00;;;;;;;0.47;0.47;;;23.40;60.90;;;23.60;45.68;94792.34;5075536;28;20553;-39
2023/07/27 08:36:28;;;;;;;0.30;0.30;;;23.30;61.80;;;23.61;45.69;94801.97;5074909;28;20247;-39
2023/07/27 08:38:55;;;;;;;0.30;0.30;;;23.40;60.90;;;23.63;45.60;94799.81;5075485;28;20194;-39
2023/07/27 08:41:22;;;;;;;0.40;0.40;;;23.40;60.80;;;23.65;45.38;94797.66;5075397;28;20191;-39
2023/07/27 08:43:51;;;;;;;0.40;0.40;;;23.40;60.80;;;23.65;45.44;94794.19;5074114;28;20301;-39
2023/07/27 08:46:20;;;;;;;0.40;0.40;;;23.50;60.90;;;23.67;45.51;94792.03;5075644;28;20189;-39
2023/07/27 08:48:49;;;;;;;0.40;0.40;;;23.50;60.90;;;23.67;45.35;94787.47;5075341;28;20186;-38
2023/07/27 08:51:16;;;;;;;0.40;0.40;;;23.40;61.00;;;23.70;45.43;94788.78;5075581;28;20648;-39
2023/07/27 08:53:43;;;;;;;0.40;0.40;;;23.50;60.90;;;23.72;45.43;94786.63;5075355;28;20270;-39
2023/07/27 08:56:11;;;;;;;0.30;0.30;;;23.50;60.90;;;23.73;45.51;94780.22;5075278;28;20204;-39
2023/07/27 08:58:38;;;;;;;0.40;0.40;;;23.50;60.70;;;23.74;45.18;94786.34;5074334;28;20200;-39
2023/07/27 09:01:05;;;;;;;0.30;0.30;;;23.50;60.60;;;23.74;45.14;94775.66;5075208;28;20191;-39
2023/07/27 09:03:32;;;;;;;0.40;0.40;;;23.50;60.50;;;23.75;45.12;94777.25;5075331;28;20217;-39
2023/07/27 09:06:02;;;;;;;0.40;0.40;;;23.50;60.50;;;23.75;44.94;94767.31;5075047;28;20241;-39
2023/07/27 09:08:30;;;;;;;0.40;0.40;;;23.50;60.50;;;23.76;44.85;94766.25;5075047;28;20715;-39
2023/07/27 09:11:09;;;;;;;0.30;0.30;;;23.50;60.40;;;23.78;45.13;94763.31;5074863;28;20215;-39
2023/07/27 09:13:37;;;;;;;0.40;0.40;;;23.50;60.30;;;23.79;44.95;94772.91;5075353;28;20205;-39
2023/07/27 09:16:09;;;;;;;0.30;0.30;;;23.50;60.50;;;23.81;44.90;94760.06;5075122;28;20193;-39
2023/07/27 09:18:37;;;;;;;0.32;0.32;;;23.50;60.50;;;23.82;44.97;94754.41;5075299;28;20205;-38
2023/07/27 09:21:08;;;;;;;0.30;0.30;;;23.50;60.60;;;23.86;45.04;94759.22;5073865;28;20201;-39
2023/07/27 09:23:36;;;;;;;0.40;0.40;;;23.50;60.60;;;23.87;45.01;94752.78;5075126;28;20216;-39
2023/07/27 09:26:05;;;;;;;0.30;0.30;;;23.60;60.60;;;23.88;44.84;94755.19;5075488;28;20288;-39
2023/07/27 09:28:33;;;;;;;0.20;0.20;;;23.60;60.50;;;23.88;44.79;94752.50;5075359;28;20201;-38
2023/07/27 09:31:04;;;;;;;0.30;0.30;;;23.60;60.30;;;23.89;44.43;94755.97;5073855;28;20274;-38
2023/07/27 09:33:32;;;;;;;0.30;0.30;;;23.60;60.10;;;23.89;44.44;94748.75;5074232;28;20191;-39
2023/07/27 09:36:01;;;;;;;0.40;0.40;;;23.60;60.00;;;23.90;44.62;94746.88;5075037;28;20227;-39
2023/07/27 09:38:28;;;;;;;0.52;0.52;;;23.60;60.00;;;23.90;44.24;94742.31;5074222;28;20201;-38
2023/07/27 09:40:56;;;;;;;0.40;0.40;;;23.60;60.10;;;23.92;44.36;94740.16;5074742;28;20271;-39
2023/07/27 09:43:26;;;;;;;0.40;0.40;;;23.70;60.20;;;23.93;44.59;94741.00;5074529;28;20659;-39
2023/07/27 09:46:00;;;;;;;0.60;0.60;;;23.70;60.00;;;23.96;44.36;94737.72;5074782;28;20320;-39
2023/07/27 09:48:28;;;;;;;0.38;0.38;;;23.70;60.00;;;23.96;44.14;94741.22;5074949;28;20207;-39
2023/07/27 09:51:02;;;;;;;0.50;0.50;;;23.70;60.00;;;23.97;43.90;94728.63;5074544;28;20185;-39
2023/07/27 09:53:30;;;;;;;0.52;0.52;;;23.70;59.90;;;24.02;44.34;94725.09;5074934;28;20217;-39
2023/07/27 09:55:59;;;;;;;0.30;0.30;;;23.70;60.00;;;24.05;44.24;94725.34;5074643;28;20193;-39
2023/07/27 09:58:29;;;;;;;0.50;0.50;;;23.70;60.00;;;24.07;44.39;94731.22;5074682;28;20534;-39
2023/07/27 10:00:57;;;;;;;0.40;0.40;;;23.70;60.00;;;24.10;44.34;94714.56;5074609;28;20185;-39
2023/07/27 10:03:24;;;;;;;0.40;0.40;;;23.80;60.00;;;24.13;44.24;94721.25;5075011;28;20212;-39
2023/07/27 10:05:52;;;;;;;0.55;0.55;;;23.80;60.00;;;24.16;43.97;94717.19;5073629;28;20222;-38
2023/07/27 10:08:20;;;;;;;0.40;0.40;;;23.80;59.80;;;24.17;44.14;94714.25;5074461;28;20636;-39
2023/07/27 10:10:54;;;;;;;0.40;0.40;;;23.80;59.70;;;24.20;43.82;94715.56;5073662;28;20292;-39
2023/07/27 10:13:24;;;;;;;0.30;0.30;;;23.90;59.50;;;24.21;44.03;94715.28;5074738;28;20611;-39
2023/07/27 10:15:53;;;;;;;0.30;0.30;;;23.90;59.50;;;24.23;43.69;94710.44;5074844;28;20200;-39
2023/07/27 10:18:27;;;;;;;0.38;0.38;;;24.00;59.60;;;24.26;43.81;94711.75;5073442;28;20254;-39
2023/07/27 10:21:21;;;;;;;0.60;0.60;;;23.90;59.60;;;24.27;43.73;94705.31;5074954;28;20182;-39
2023/07/27 10:24:02;;;;;;;0.40;0.40;;;23.90;59.60;;;24.29;43.69;94705.81;5073509;28;20229;-39
2023/07/27 10:26:51;;;;;;;0.40;0.40;;;24.00;59.50;;;24.29;43.73;94698.59;5073294;28;20190;-39
2023/07/27 10:29:20;;;;;;;0.40;0.40;;;24.00;59.40;;;24.34;43.46;94694.25;5077360;28;20187;-39